CPA186 VHHH-ZSAM
Flight info
| Callsign | CPA186 |
|---|---|
| Flight time | N/A |
| Altitude | 31000 |
| Route | LEKEN V601 DOTMI/K0945S0945 A470 TEBON TEBON8X |
| Aircraft | B77W/H-SDE1E2E3FGHIJ2J3J4J5M1RWXY/LB1D1 |
Departure
| Time | 2026-05-07 00:46 |
|---|---|
| Airport | Hong Kong International Airport (VHHH) |
Arrival
| Time | N/A |
|---|---|
| Airport | Xiamen Gaoqi International Airport (ZSAM) |
| Time | Latitude | Longitude | Altitude | Speed | Heading |
|---|---|---|---|---|---|
| 2026-05-07 00:28 | 22.31037 | 113.91672 | 42 ft | 0 kts | 72° |
| 2026-05-07 00:35 | 22.31035 | 113.91666 | 42 ft | 2 kts | 72° |
| 2026-05-07 00:36 | 22.31030 | 113.91650 | 42 ft | 2 kts | 72° |
| 2026-05-07 00:36 | 22.31026 | 113.91635 | 42 ft | 2 kts | 72° |
| 2026-05-07 00:36 | 22.31021 | 113.91620 | 42 ft | 2 kts | 72° |
| 2026-05-07 00:36 | 22.31017 | 113.91605 | 42 ft | 1 kts | 72° |
| 2026-05-07 00:37 | 22.31013 | 113.91595 | 42 ft | 2 kts | 63° |
| 2026-05-07 00:37 | 22.31004 | 113.91584 | 42 ft | 2 kts | 28° |
| 2026-05-07 00:37 | 22.30990 | 113.91579 | 42 ft | 2 kts | 1° |
| 2026-05-07 00:37 | 22.30980 | 113.91580 | 42 ft | 0 kts | 341° |
| 2026-05-07 00:38 | 22.30975 | 113.91582 | 42 ft | 0 kts | 340° |
| 2026-05-07 00:39 | 22.30977 | 113.91581 | 42 ft | 1 kts | 340° |
| 2026-05-07 00:39 | 22.31012 | 113.91567 | 42 ft | 8 kts | 340° |
| 2026-05-07 00:40 | 22.31088 | 113.91539 | 42 ft | 14 kts | 342° |
| 2026-05-07 00:40 | 22.31199 | 113.91499 | 42 ft | 17 kts | 340° |
| 2026-05-07 00:40 | 22.31309 | 113.91457 | 42 ft | 15 kts | 341° |
| 2026-05-07 00:40 | 22.31402 | 113.91410 | 42 ft | 14 kts | 303° |
| 2026-05-07 00:41 | 22.31392 | 113.91297 | 42 ft | 16 kts | 252° |
| 2026-05-07 00:41 | 22.31353 | 113.91174 | 42 ft | 18 kts | 251° |
| 2026-05-07 00:41 | 22.31309 | 113.91038 | 42 ft | 19 kts | 250° |
| 2026-05-07 00:41 | 22.31261 | 113.90892 | 42 ft | 21 kts | 251° |
| 2026-05-07 00:42 | 22.31212 | 113.90738 | 42 ft | 22 kts | 251° |
| 2026-05-07 00:42 | 22.31159 | 113.90573 | 42 ft | 23 kts | 250° |
| 2026-05-07 00:42 | 22.31103 | 113.90400 | 42 ft | 24 kts | 250° |
| 2026-05-07 00:42 | 22.31046 | 113.90220 | 42 ft | 26 kts | 251° |
| 2026-05-07 00:43 | 22.30983 | 113.90052 | 42 ft | 18 kts | 226° |
| 2026-05-07 00:43 | 22.30880 | 113.89989 | 42 ft | 17 kts | 242° |
| 2026-05-07 00:43 | 22.30838 | 113.89856 | 42 ft | 19 kts | 259° |
| 2026-05-07 00:43 | 22.30848 | 113.89707 | 42 ft | 20 kts | 278° |
| 2026-05-07 00:44 | 22.30842 | 113.89545 | 42 ft | 22 kts | 264° |
| 2026-05-07 00:44 | 22.30837 | 113.89443 | 42 ft | 11 kts | 285° |
| 2026-05-07 00:44 | 22.30902 | 113.89389 | 42 ft | 13 kts | 346° |
| 2026-05-07 00:44 | 22.30975 | 113.89438 | 42 ft | 14 kts | 68° |
| 2026-05-07 00:45 | 22.30985 | 113.89465 | 42 ft | 0 kts | 70° |
| 2026-05-07 00:45 | 22.30986 | 113.89469 | 42 ft | 5 kts | 70° |
| 2026-05-07 00:45 | 22.31079 | 113.89758 | 42 ft | 77 kts | 70° |
| 2026-05-07 00:46 | 22.31337 | 113.90551 | 42 ft | 143 kts | 72° |
| 2026-05-07 00:46 | 22.31724 | 113.91765 | 131 ft | 191 kts | 72° |
| 2026-05-07 00:46 | 22.32165 | 113.93137 | 805 ft | 197 kts | 72° |
| 2026-05-07 00:46 | 22.32598 | 113.94472 | 1763 ft | 195 kts | 72° |
| 2026-05-07 00:47 | 22.33065 | 113.95924 | 2259 ft | 214 kts | 72° |
| 2026-05-07 00:47 | 22.33475 | 113.97527 | 2807 ft | 231 kts | 81° |
| 2026-05-07 00:47 | 22.33761 | 113.99280 | 3383 ft | 249 kts | 82° |
| 2026-05-07 00:47 | 22.34066 | 114.01184 | 4054 ft | 264 kts | 81° |
| 2026-05-07 00:48 | 22.34386 | 114.03156 | 4885 ft | 272 kts | 82° |
| 2026-05-07 00:48 | 22.34369 | 114.05187 | 5685 ft | 277 kts | 107° |
| 2026-05-07 00:48 | 22.33494 | 114.07018 | 6485 ft | 279 kts | 134° |
| 2026-05-07 00:48 | 22.31929 | 114.08209 | 7290 ft | 280 kts | 162° |
| 2026-05-07 00:49 | 22.30036 | 114.08622 | 8119 ft | 281 kts | 177° |
| 2026-05-07 00:49 | 22.28080 | 114.08697 | 8952 ft | 285 kts | 181° |
| 2026-05-07 00:49 | 22.26093 | 114.08699 | 9736 ft | 290 kts | 182° |
| 2026-05-07 00:49 | 22.24050 | 114.08690 | 10546 ft | 295 kts | 182° |
| 2026-05-07 00:50 | 22.21966 | 114.08846 | 11187 ft | 308 kts | 173° |
| 2026-05-07 00:50 | 22.19829 | 114.09370 | 11675 ft | 326 kts | 164° |
| 2026-05-07 00:50 | 22.17662 | 114.10335 | 12175 ft | 344 kts | 154° |
| 2026-05-07 00:50 | 22.15602 | 114.11755 | 12674 ft | 362 kts | 143° |
| 2026-05-07 00:51 | 22.13728 | 114.13662 | 13170 ft | 379 kts | 132° |
| 2026-05-07 00:51 | 22.12182 | 114.16004 | 13650 ft | 395 kts | 120° |
| 2026-05-07 00:51 | 22.10948 | 114.18700 | 14199 ft | 408 kts | 116° |
| 2026-05-07 00:51 | 22.09716 | 114.21507 | 14896 ft | 415 kts | 116° |
| 2026-05-07 00:52 | 22.08364 | 114.24262 | 15645 ft | 419 kts | 124° |